AirNav   TITAN Aviation Fuels
 
 1137 users online  

1TX4 New Gulf Airport
New Gulf, Texas, USA

GOING TO NEW GULF?


FAA INFORMATION EFFECTIVE 11 AUGUST 2022

Location

FAA Identifier: 1TX4
Lat/Long: 29-16-24.0250N 095-53-12.8500W
29-16.400417N 095-53.214167W
29.2733403,-95.8869028
(estimated)
Elevation: 100 ft. / 30 m (estimated)
From city: 2 miles E of NEW GULF, TX
Time zone: UTC -5 (UTC -6 during Standard Time)
Zip code: 77420

Airport Operations

Airport use: Private use. Permission required prior to landing
Activation date: 08/2003
Control tower: no
ARTCC: HOUSTON CENTER
FSS: MONTGOMERY COUNTY FLIGHT SERVICE STATION
Attendance: UNATNDD
Segmented circle: no

Airport Communications

WX AWOS-3 at ARM (14 nm W): 118.475 (979-532-2791)
WX AWOS-3 at BYY (18 nm S): 118.075 (979-323-1801)

Nearby radio navigation aids

VOR radial/distance  VOR name  Freq  Var
ELAr128/32.4EAGLE LAKE VOR/DME116.4008E
PSXr028/37.6PALACIOS VORTAC117.3008E

Airport Services

Runway Information

Runway 15/33

Dimensions: 4300 x 75 ft. / 1311 x 23 m
Surface: asphalt, in poor condition
RY HAS LOOSE AGGREGATE, CRACKING & UNEVEN PATCHES.
Runway edge markings: NO RY NR. RY MARKINGS 4 INCHES WIDE, NSTD SPACING, DO NOT EXTEND FULL RY LENGTH & CNTRLN OFFSET APPROXLY 12 FT ON RY END.
RUNWAY 15  RUNWAY 33
Latitude: 29-16.732500N29-16.068333N
Longitude: 095-53.356667W095-53.071667W
Elevation: 100.0 ft.100.0 ft.
Traffic pattern: leftleft
Runway heading: 159 true339 true
Markings: NSTD, in poor conditionNSTD, in poor condition
Obstructions: 12 ft. tree, 220 ft. from runway, 33 ft. left of centerline, 1:1 slope to clear
5 FT FENCE ON CNTRLN 98 FT FM THLD, ROAD ON RY EXTENDING BYD THLD.
27 ft. pline, 336 ft. from runway, 62 ft. left of centerline, 5:1 slope to clear
5 FT FENCE PARALLEL TO RY 40 FT FM CNTRLN EXTENDING 117 FT FM THLD.

Airport Ownership and Management from official FAA records

Ownership: Privately-owned
Owner: H & L NEW GULF
132 AVE G
NEW GULF, TX 77462
Phone 979-429-6955
Manager: BOB JACKSON
HANGAR 1
NEW GULF, TX 77462
Phone 979-429-6955

Airport Operational Statistics

Aircraft operations: 100/year *
100% transient general aviation
* for 12-month period ending 21 May 2011

Additional Remarks

LIVESTOCK ON FIELD AND VEHICULAR TRAFFIC ON RY.
FOR CD CTC HOUSTON ARTCC AT 281-230-5622.

Instrument Procedures

There are no published instrument procedures at 1TX4.

Some nearby airports with instrument procedures:

KARM - Wharton Regional Airport (14 nm W)
KBYY - Bay City Regional Airport (18 nm S)
KSGR - Sugar Land Regional Airport (24 nm NE)
KLBX - Texas Gulf Coast Regional Airport (24 nm SE)
KAXH - Houston Southwest Airport (26 nm NE)
 
Loc | Ops | Rwys | IFR | FBO | Links
Com | Nav | Svcs | Stats | Notes
Area around 1TX4 (New Gulf Airport)
 
Road maps at: MapQuest Bing Google
 
Aerial photo
WARNING: Photo may not be current or correct
Aerial photo of 1TX4 (New Gulf Airport)
Taken in September 2007

Do you have a better or more recent aerial photo of New Gulf Airport that you would like to share? If so, please send us your photo.

 
Sectional chart

 
Airport distance calculator
Flying to New Gulf Airport? Find the distance to fly.

From to 1TX4

Sunrise and sunset
Times for 11-Aug-2022
 Local
(UTC-5)
 Zulu
(UTC)
Morning civil twilight06:2511:25
Sunrise06:5111:51
Sunset20:0701:07
Evening civil twilight20:3201:32

Current date and time
Zulu (UTC)  12-Aug-2022 02:19:26
Local (UTC-5)  11-Aug-2022 21:19:26
 
METAR
KARM 
14nm W 
120155Z AUTO 17008KT 10SM VCTS SCT014 SCT022 SCT028 27/25 A2996 RMK AO2 LTG DSNT SE THRU SW P0006 T02660245
KBYY 
18nm S 
120155Z AUTO 17003KT 10SM CLR 27/24 A2996 RMK AO2 T02780242
KLBX 
24nm SE 
120153Z AUTO 15006KT 10SM CLR 29/23 A2995 RMK AO2 SLP140 T02890233
KSGR 
24nm NE 
120153Z 15010KT 10SM FEW070 29/24 A2994 RMK AO2 LTG DSNT W SLP140 T02940239
KAXH 
26nm NE 
120155Z AUTO 16003KT 10SM CLR 29/25 A2996 RMK AO2 T02900250
TAF
KLBX 
24nm SE 
111728Z 1118/1218 00000KT P6SM SKC FM112000 08007KT P6SM VCSH SCT030 BKN200 FM112100 12007KT P6SM VCTS SCT035CB SCT200 FM120100 VRB03KT P6SM SCT030 SCT250 FM121000 VRB02KT P6SM VCSH SCT015 SCT250 FM121600 03007KT P6SM VCTS SCT040CB BKN100
KSGR 
24nm NE 
111728Z 1118/1218 30004KT P6SM SKC FM112000 04006KT P6SM VCSH SCT040 SCT200 FM112200 12007KT P6SM VCTS SCT045CB BKN250 FM120100 VRB03KT P6SM SCT035 SCT250 FM121100 VRB02KT P6SM VCSH SCT015 SCT250
NOTAMs
Click for the latest NOTAMs
NOTAMs are issued by the DoD/FAA and will open in a separate window not controlled by AirNav.

 

 
 

Would you like to see your business listed on this page?

 If your business provides an interesting product or service to pilots, flight crews, aircraft, or users of the New Gulf Airport, you should consider listing it here.  To start the listing process, click on the button below
 
Add a business
 

Other Pages about New Gulf Airport

Update a link
 
Copyright © AirNav, LLC. All rights reserved. Privacy Policy  Contact